sensor_id;sensor_type;location;lat;lon;timestamp;pressure;altitude;pressure_sealevel;temperature;humidity
45793;BME280;31495;42.740;22.908;2022-08-19T00:00:10;92972.00;;;18.83;60.03
45793;BME280;31495;42.740;22.908;2022-08-19T00:01:10;92992.44;;;18.91;59.93
45793;BME280;31495;42.740;22.908;2022-08-19T00:02:10;92971.44;;;18.81;60.02
45793;BME280;31495;42.740;22.908;2022-08-19T00:03:10;92994.78;;;18.93;59.89
45793;BME280;31495;42.740;22.908;2022-08-19T00:04:11;92992.44;;;18.91;60.08
45793;BME280;31495;42.740;22.908;2022-08-19T00:05:13;92963.84;;;18.80;59.93
45793;BME280;31495;42.740;22.908;2022-08-19T00:06:15;92996.63;;;18.98;60.22
45793;BME280;31495;42.740;22.908;2022-08-19T00:07:15;92962.78;;;18.76;59.80
45793;BME280;31495;42.740;22.908;2022-08-19T00:08:14;92970.44;;;18.87;59.98
45793;BME280;31495;42.740;22.908;2022-08-19T00:09:16;92971.19;;;18.78;60.24
45793;BME280;31495;42.740;22.908;2022-08-19T00:10:18;93001.63;;;18.89;60.29
45793;BME280;31495;42.740;22.908;2022-08-19T00:11:18;92989.56;;;18.88;60.12
45793;BME280;31495;42.740;22.908;2022-08-19T00:12:18;92988.75;;;18.77;60.20
45793;BME280;31495;42.740;22.908;2022-08-19T00:13:18;92994.00;;;18.67;60.84
45793;BME280;31495;42.740;22.908;2022-08-19T00:14:18;92986.66;;;18.64;61.05
45793;BME280;31495;42.740;22.908;2022-08-19T00:15:21;92993.75;;;18.63;61.06
45793;BME280;31495;42.740;22.908;2022-08-19T00:16:21;92976.69;;;18.61;61.03
45793;BME280;31495;42.740;22.908;2022-08-19T00:17:20;92993.72;;;18.73;60.72
45793;BME280;31495;42.740;22.908;2022-08-19T00:18:20;92993.19;;;18.77;60.90
45793;BME280;31495;42.740;22.908;2022-08-19T00:19:20;92972.50;;;18.65;60.73
45793;BME280;31495;42.740;22.908;2022-08-19T00:20:21;92994.50;;;18.69;61.27
45793;BME280;31495;42.740;22.908;2022-08-19T00:21:22;92974.09;;;18.50;61.11
45793;BME280;31495;42.740;22.908;2022-08-19T00:22:22;92988.50;;;18.58;61.15
45793;BME280;31495;42.740;22.908;2022-08-19T00:23:21;92969.63;;;18.46;61.16
45793;BME280;31495;42.740;22.908;2022-08-19T00:24:20;92993.22;;;18.66;61.12
45793;BME280;31495;42.740;22.908;2022-08-19T00:25:20;92985.06;;;18.58;60.88
45793;BME280;31495;42.740;22.908;2022-08-19T00:26:20;92984.31;;;18.57;60.52
45793;BME280;31495;42.740;22.908;2022-08-19T00:27:19;92963.34;;;18.42;60.78
45793;BME280;31495;42.740;22.908;2022-08-19T00:28:19;92955.50;;;18.42;60.74
45793;BME280;31495;42.740;22.908;2022-08-19T00:29:21;92989.78;;;18.61;60.12
45793;BME280;31495;42.740;22.908;2022-08-19T00:30:21;92989.28;;;18.64;60.28
45793;BME280;31495;42.740;22.908;2022-08-19T00:31:21;92985.06;;;18.58;60.57
45793;BME280;31495;42.740;22.908;2022-08-19T00:32:20;92991.38;;;18.51;60.86
45793;BME280;31495;42.740;22.908;2022-08-19T00:33:20;92956.53;;;18.20;60.90
45793;BME280;31495;42.740;22.908;2022-08-19T00:34:22;92986.13;;;18.36;61.09
45793;BME280;31495;42.740;22.908;2022-08-19T00:35:21;92992.69;;;18.33;61.23
45793;BME280;31495;42.740;22.908;2022-08-19T00:36:21;92989.25;;;18.38;60.98
45793;BME280;31495;42.740;22.908;2022-08-19T00:37:22;92968.31;;;18.17;61.46
45793;BME280;31495;42.740;22.908;2022-08-19T00:38:23;92964.38;;;18.10;61.42
45793;BME280;31495;42.740;22.908;2022-08-19T00:39:23;92989.00;;;18.24;62.12
45793;BME280;31495;42.740;22.908;2022-08-19T00:40:22;92963.34;;;18.11;62.00
45793;BME280;31495;42.740;22.908;2022-08-19T00:41:24;92964.91;;;18.12;62.05
45793;BME280;31495;42.740;22.908;2022-08-19T00:42:23;92985.59;;;18.24;61.93
45793;BME280;31495;42.740;22.908;2022-08-19T00:43:28;92966.47;;;18.08;62.09
45793;BME280;31495;42.740;22.908;2022-08-19T00:44:28;92981.91;;;18.25;62.02
45793;BME280;31495;42.740;22.908;2022-08-19T00:45:29;92989.78;;;18.30;62.08
45793;BME280;31495;42.740;22.908;2022-08-19T00:46:34;92988.22;;;18.29;61.49
45793;BME280;31495;42.740;22.908;2022-08-19T00:47:35;92969.09;;;18.18;61.58
45793;BME280;31495;42.740;22.908;2022-08-19T00:48:35;92958.09;;;18.06;61.38
45793;BME280;31495;42.740;22.908;2022-08-19T00:49:39;92978.00;;;18.17;61.86
45793;BME280;31495;42.740;22.908;2022-08-19T00:50:40;92985.31;;;18.10;61.80
45793;BME280;31495;42.740;22.908;2022-08-19T00:51:45;92977.44;;;17.99;62.05
45793;BME280;31495;42.740;22.908;2022-08-19T00:52:49;92972.72;;;17.91;62.41
45793;BME280;31495;42.740;22.908;2022-08-19T00:53:49;92968.22;;;17.87;62.67
45793;BME280;31495;42.740;22.908;2022-08-19T00:54:49;92943.56;;;17.67;62.96
45793;BME280;31495;42.740;22.908;2022-08-19T00:55:51;92949.88;;;17.71;62.83
45793;BME280;31495;42.740;22.908;2022-08-19T00:56:52;92965.88;;;17.85;62.81
45793;BME280;31495;42.740;22.908;2022-08-19T00:57:56;92983.47;;;18.05;62.31
45793;BME280;31495;42.740;22.908;2022-08-19T00:58:58;92947.53;;;17.85;61.99
45793;BME280;31495;42.740;22.908;2022-08-19T00:59:59;92983.50;;;18.10;61.75
45793;BME280;31495;42.740;22.908;2022-08-19T01:01:00;92966.19;;;17.99;61.81
45793;BME280;31495;42.740;22.908;2022-08-19T01:02:00;92963.03;;;17.92;61.98
45793;BME280;31495;42.740;22.908;2022-08-19T01:02:59;92982.69;;;18.05;62.13
45793;BME280;31495;42.740;22.908;2022-08-19T01:03:59;92972.97;;;17.90;62.31
45793;BME280;31495;42.740;22.908;2022-08-19T01:05:01;92991.03;;;17.96;62.04
45793;BME280;31495;42.740;22.908;2022-08-19T01:06:01;92977.91;;;17.76;62.50
45793;BME280;31495;42.740;22.908;2022-08-19T01:07:01;92994.38;;;17.81;62.97
45793;BME280;31495;42.740;22.908;2022-08-19T01:08:03;92972.34;;;17.62;63.25
45793;BME280;31495;42.740;22.908;2022-08-19T01:09:04;92988.06;;;17.72;63.49
45793;BME280;31495;42.740;22.908;2022-08-19T01:10:07;92977.84;;;17.71;63.11
45793;BME280;31495;42.740;22.908;2022-08-19T01:11:07;92989.13;;;17.76;63.26
45793;BME280;31495;42.740;22.908;2022-08-19T01:12:08;92963.16;;;17.54;63.07
45793;BME280;31495;42.740;22.908;2022-08-19T01:13:08;92983.91;;;17.71;63.20
45793;BME280;31495;42.740;22.908;2022-08-19T01:14:08;92983.63;;;17.73;63.29
45793;BME280;31495;42.740;22.908;2022-08-19T01:15:11;92990.16;;;17.75;63.17
45793;BME280;31495;42.740;22.908;2022-08-19T01:16:12;92987.31;;;17.82;63.02
45793;BME280;31495;42.740;22.908;2022-08-19T01:17:12;92991.50;;;17.83;62.66
45793;BME280;31495;42.740;22.908;2022-08-19T01:18:15;92994.13;;;17.83;62.85
45793;BME280;31495;42.740;22.908;2022-08-19T01:19:21;92994.09;;;17.73;62.99
45793;BME280;31495;42.740;22.908;2022-08-19T01:20:24;92984.91;;;17.65;63.26
45793;BME280;31495;42.740;22.908;2022-08-19T01:22:43;92983.63;;;17.68;63.06
45793;BME280;31495;42.740;22.908;2022-08-19T01:23:44;92955.53;;;17.42;63.07
45793;BME280;31495;42.740;22.908;2022-08-19T01:24:44;92996.41;;;17.64;63.64
45793;BME280;31495;42.740;22.908;2022-08-19T01:25:51;92995.88;;;17.62;63.50
45793;BME280;31495;42.740;22.908;2022-08-19T01:26:51;92986.50;;;17.66;63.66
45793;BME280;31495;42.740;22.908;2022-08-19T01:27:50;92995.91;;;17.72;63.69
45793;BME280;31495;42.740;22.908;2022-08-19T01:28:52;92996.97;;;17.66;63.82
45793;BME280;31495;42.740;22.908;2022-08-19T01:29:52;92996.16;;;17.71;63.80
45793;BME280;31495;42.740;22.908;2022-08-19T01:30:53;92993.28;;;17.62;63.51
45793;BME280;31495;42.740;22.908;2022-08-19T01:31:53;93003.50;;;17.74;63.19
45793;BME280;31495;42.740;22.908;2022-08-19T01:32:54;92978.34;;;17.62;63.24
45793;BME280;31495;42.740;22.908;2022-08-19T01:33:56;93003.53;;;17.79;63.08
45793;BME280;31495;42.740;22.908;2022-08-19T01:34:55;93004.06;;;17.81;63.47
45793;BME280;31495;42.740;22.908;2022-08-19T01:36:14;92959.50;;;17.50;63.11
45793;BME280;31495;42.740;22.908;2022-08-19T01:37:14;92986.50;;;17.66;63.50
45793;BME280;31495;42.740;22.908;2022-08-19T01:38:25;92982.03;;;17.61;63.36
45793;BME280;31495;42.740;22.908;2022-08-19T01:39:25;92981.75;;;17.58;63.43
45793;BME280;31495;42.740;22.908;2022-08-19T01:40:31;92999.59;;;17.71;63.34
45793;BME280;31495;42.740;22.908;2022-08-19T01:41:31;92995.41;;;17.75;63.10
45793;BME280;31495;42.740;22.908;2022-08-19T01:42:30;92994.38;;;17.76;62.75
45793;BME280;31495;42.740;22.908;2022-08-19T01:43:32;93001.16;;;17.72;63.45
45793;BME280;31495;42.740;22.908;2022-08-19T01:44:32;92977.03;;;17.55;63.54
45793;BME280;31495;42.740;22.908;2022-08-19T01:45:33;92995.38;;;17.60;63.51
45793;BME280;31495;42.740;22.908;2022-08-19T01:46:33;92985.16;;;17.53;63.69
45793;BME280;31495;42.740;22.908;2022-08-19T01:47:35;92992.75;;;17.60;63.51
45793;BME280;31495;42.740;22.908;2022-08-19T01:48:35;92992.75;;;17.60;63.39
45793;BME280;31495;42.740;22.908;2022-08-19T01:49:36;92994.84;;;17.58;63.33
45793;BME280;31495;42.740;22.908;2022-08-19T01:50:36;92975.44;;;17.49;63.08
45793;BME280;31495;42.740;22.908;2022-08-19T01:51:37;92992.22;;;17.58;62.96
45793;BME280;31495;42.740;22.908;2022-08-19T01:52:41;92970.69;;;17.40;62.69
45793;BME280;31495;42.740;22.908;2022-08-19T01:53:41;92953.09;;;17.15;63.22
45793;BME280;31495;42.740;22.908;2022-08-19T01:54:41;92975.03;;;17.19;63.54
45793;BME280;31495;42.740;22.908;2022-08-19T01:55:42;92996.81;;;17.30;63.64
45793;BME280;31495;42.740;22.908;2022-08-19T01:56:41;92999.91;;;17.22;64.04
45793;BME280;31495;42.740;22.908;2022-08-19T01:57:44;92976.00;;;17.03;64.05
45793;BME280;31495;42.740;22.908;2022-08-19T01:58:50;93006.56;;;16.97;64.56
45793;BME280;31495;42.740;22.908;2022-08-19T01:59:51;92977.66;;;16.77;64.98
45793;BME280;31495;42.740;22.908;2022-08-19T02:00:50;92999.69;;;16.86;65.33
45793;BME280;31495;42.740;22.908;2022-08-19T02:01:50;92988.66;;;16.84;65.28
45793;BME280;31495;42.740;22.908;2022-08-19T02:02:49;92985.56;;;16.87;65.56
45793;BME280;31495;42.740;22.908;2022-08-19T02:03:49;92967.97;;;16.77;65.24
45793;BME280;31495;42.740;22.908;2022-08-19T02:04:49;92965.69;;;16.81;65.16
45793;BME280;31495;42.740;22.908;2022-08-19T02:05:55;92936.63;;;16.77;64.67
45793;BME280;31495;42.740;22.908;2022-08-19T02:06:55;92960.56;;;17.01;64.46
45793;BME280;31495;42.740;22.908;2022-08-19T02:07:56;92972.69;;;17.18;64.16
45793;BME280;31495;42.740;22.908;2022-08-19T02:08:56;92961.94;;;17.09;64.26
45793;BME280;31495;42.740;22.908;2022-08-19T02:09:56;92959.03;;;17.05;64.01
45793;BME280;31495;42.740;22.908;2022-08-19T02:10:56;92960.94;;;17.15;63.88
45793;BME280;31495;42.740;22.908;2022-08-19T02:11:56;92980.56;;;17.28;63.83
45793;BME280;31495;42.740;22.908;2022-08-19T02:12:55;92976.16;;;17.29;63.67
45793;BME280;31495;42.740;22.908;2022-08-19T02:13:54;92974.84;;;17.31;63.62
45793;BME280;31495;42.740;22.908;2022-08-19T02:14:54;92966.22;;;17.31;63.65
45793;BME280;31495;42.740;22.908;2022-08-19T02:15:54;92956.50;;;17.21;63.43
45793;BME280;31495;42.740;22.908;2022-08-19T02:16:53;92941.53;;;17.06;63.44
45793;BME280;31495;42.740;22.908;2022-08-19T02:17:52;92980.56;;;17.28;63.45
45793;BME280;31495;42.740;22.908;2022-08-19T02:18:52;92947.56;;;17.12;63.68
45793;BME280;31495;42.740;22.908;2022-08-19T02:19:51;92981.41;;;17.34;63.84
45793;BME280;31495;42.740;22.908;2022-08-19T02:20:51;92975.09;;;17.35;63.33
45793;BME280;31495;42.740;22.908;2022-08-19T02:21:50;92969.34;;;17.33;63.25
45793;BME280;31495;42.740;22.908;2022-08-19T02:22:49;92973.06;;;17.42;63.29
45793;BME280;31495;42.740;22.908;2022-08-19T02:23:50;92950.25;;;17.27;63.25
45793;BME280;31495;42.740;22.908;2022-08-19T02:24:49;92943.16;;;17.22;63.26
45793;BME280;31495;42.740;22.908;2022-08-19T02:25:51;92960.72;;;17.27;63.38
45793;BME280;31495;42.740;22.908;2022-08-19T02:26:51;92980.66;;;17.49;63.27
45793;BME280;31495;42.740;22.908;2022-08-19T02:27:51;92978.31;;;17.52;63.24
45793;BME280;31495;42.740;22.908;2022-08-19T02:28:50;92967.09;;;17.52;63.13
45793;BME280;31495;42.740;22.908;2022-08-19T02:29:51;92981.19;;;17.51;63.24
45793;BME280;31495;42.740;22.908;2022-08-19T02:30:50;92973.84;;;17.42;63.12
45793;BME280;31495;42.740;22.908;2022-08-19T02:31:50;92989.81;;;17.46;63.57
45793;BME280;31495;42.740;22.908;2022-08-19T02:32:51;92958.38;;;17.31;63.62
45793;BME280;31495;42.740;22.908;2022-08-19T02:33:51;92985.13;;;17.48;63.21
45793;BME280;31495;42.740;22.908;2022-08-19T02:34:51;92957.34;;;17.32;63.49
45793;BME280;31495;42.740;22.908;2022-08-19T02:35:50;92978.56;;;17.45;63.44
45793;BME280;31495;42.740;22.908;2022-08-19T02:36:51;92977.22;;;17.43;63.16
45793;BME280;31495;42.740;22.908;2022-08-19T02:37:51;92975.41;;;17.38;63.49
45793;BME280;31495;42.740;22.908;2022-08-19T02:39:10;92955.44;;;17.17;63.41
45793;BME280;31495;42.740;22.908;2022-08-19T02:40:09;92981.13;;;17.30;63.16
45793;BME280;31495;42.740;22.908;2022-08-19T02:41:31;92984.25;;;17.32;63.35
45793;BME280;31495;42.740;22.908;2022-08-19T02:42:31;92965.06;;;17.11;63.78
45793;BME280;31495;42.740;22.908;2022-08-19T02:43:32;92976.63;;;17.20;63.83
45793;BME280;31495;42.740;22.908;2022-08-19T02:44:35;92979.78;;;17.22;63.80
45793;BME280;31495;42.740;22.908;2022-08-19T02:45:36;92965.84;;;17.06;63.99
45793;BME280;31495;42.740;22.908;2022-08-19T02:46:36;92978.19;;;17.21;63.94
45793;BME280;31495;42.740;22.908;2022-08-19T02:47:35;92934.66;;;16.89;63.90
45793;BME280;31495;42.740;22.908;2022-08-19T02:48:35;92966.09;;;17.10;64.30
45793;BME280;31495;42.740;22.908;2022-08-19T02:49:34;92967.63;;;17.01;64.27
45793;BME280;31495;42.740;22.908;2022-08-19T02:50:37;92975.50;;;17.06;64.23
45793;BME280;31495;42.740;22.908;2022-08-19T02:51:40;92986.50;;;17.13;64.19
45793;BME280;31495;42.740;22.908;2022-08-19T02:52:40;92990.19;;;17.12;64.04
45793;BME280;31495;42.740;22.908;2022-08-19T02:53:39;92943.72;;;16.82;64.21
45793;BME280;31495;42.740;22.908;2022-08-19T02:54:39;92989.38;;;17.12;64.36
45793;BME280;31495;42.740;22.908;2022-08-19T02:55:48;92966.28;;;16.93;64.50
45793;BME280;31495;42.740;22.908;2022-08-19T02:56:47;92986.25;;;17.15;64.35
45793;BME280;31495;42.740;22.908;2022-08-19T02:57:47;92970.56;;;17.09;63.73
45793;BME280;31495;42.740;22.908;2022-08-19T02:58:47;92964.50;;;16.99;63.34
45793;BME280;31495;42.740;22.908;2022-08-19T02:59:47;92974.41;;;17.02;63.66
45793;BME280;31495;42.740;22.908;2022-08-19T03:00:49;92989.34;;;17.06;63.26
45793;BME280;31495;42.740;22.908;2022-08-19T03:01:49;92997.41;;;17.00;64.17
45793;BME280;31495;42.740;22.908;2022-08-19T03:02:48;92998.16;;;16.95;63.79
45793;BME280;31495;42.740;22.908;2022-08-19T03:03:48;92995.72;;;16.83;63.99
45793;BME280;31495;42.740;22.908;2022-08-19T03:04:47;92952.69;;;16.53;64.53
45793;BME280;31495;42.740;22.908;2022-08-19T03:05:47;92961.53;;;16.52;64.82
45793;BME280;31495;42.740;22.908;2022-08-19T03:06:47;92992.00;;;16.74;64.99
45793;BME280;31495;42.740;22.908;2022-08-19T03:07:46;92986.19;;;16.67;65.13
45793;BME280;31495;42.740;22.908;2022-08-19T03:08:47;92974.97;;;16.66;65.04
45793;BME280;31495;42.740;22.908;2022-08-19T03:09:47;92996.47;;;16.79;65.18
45793;BME280;31495;42.740;22.908;2022-08-19T03:10:47;92989.13;;;16.76;65.05
45793;BME280;31495;42.740;22.908;2022-08-19T03:11:47;92970.50;;;16.62;64.91
45793;BME280;31495;42.740;22.908;2022-08-19T03:12:46;92957.41;;;16.57;65.25
45793;BME280;31495;42.740;22.908;2022-08-19T03:13:46;92995.00;;;16.88;64.92
45793;BME280;31495;42.740;22.908;2022-08-19T03:14:48;92993.97;;;16.89;64.98
45793;BME280;31495;42.740;22.908;2022-08-19T03:15:48;92990.56;;;16.88;64.86
45793;BME280;31495;42.740;22.908;2022-08-19T03:16:50;92996.63;;;16.94;64.94
45793;BME280;31495;42.740;22.908;2022-08-19T03:17:50;92971.97;;;16.85;64.50
45793;BME280;31495;42.740;22.908;2022-08-19T03:18:50;92986.97;;;17.00;64.69
45793;BME280;31495;42.740;22.908;2022-08-19T03:19:50;92973.59;;;16.91;64.65
45793;BME280;31495;42.740;22.908;2022-08-19T03:20:51;92959.88;;;16.79;64.22
45793;BME280;31495;42.740;22.908;2022-08-19T03:21:54;92967.22;;;16.82;64.44
45793;BME280;31495;42.740;22.908;2022-08-19T03:22:54;92965.34;;;16.72;64.64
45793;BME280;31495;42.740;22.908;2022-08-19T03:23:55;92960.09;;;16.72;64.89
45793;BME280;31495;42.740;22.908;2022-08-19T03:24:55;92996.88;;;16.93;64.63
45793;BME280;31495;42.740;22.908;2022-08-19T03:25:55;92992.41;;;16.93;64.63
45793;BME280;31495;42.740;22.908;2022-08-19T03:26:55;92997.88;;;16.86;64.50
45793;BME280;31495;42.740;22.908;2022-08-19T03:27:57;92951.47;;;16.66;64.40
45793;BME280;31495;42.740;22.908;2022-08-19T03:28:57;92974.81;;;16.83;64.26
45793;BME280;31495;42.740;22.908;2022-08-19T03:29:57;93000.00;;;16.95;64.52
45793;BME280;31495;42.740;22.908;2022-08-19T03:30:59;92997.16;;;16.96;64.32
45793;BME280;31495;42.740;22.908;2022-08-19T03:32:00;92979.47;;;16.76;64.68
45793;BME280;31495;42.740;22.908;2022-08-19T03:33:01;92995.78;;;16.88;64.34
45793;BME280;31495;42.740;22.908;2022-08-19T03:34:01;92952.19;;;16.57;64.69
45793;BME280;31495;42.740;22.908;2022-08-19T03:35:00;92969.41;;;16.58;65.13
45793;BME280;31495;42.740;22.908;2022-08-19T03:37:09;92997.19;;;16.69;65.39
45793;BME280;31495;42.740;22.908;2022-08-19T03:38:08;93000.59;;;16.69;65.39
45793;BME280;31495;42.740;22.908;2022-08-19T03:39:10;92984.91;;;16.64;65.30
45793;BME280;31495;42.740;22.908;2022-08-19T03:40:10;92993.81;;;16.73;65.07
45793;BME280;31495;42.740;22.908;2022-08-19T03:41:13;93000.38;;;16.76;65.16
45793;BME280;31495;42.740;22.908;2022-08-19T03:42:14;92999.81;;;16.74;65.25
45793;BME280;31495;42.740;22.908;2022-08-19T03:43:16;92994.88;;;16.72;65.38
45793;BME280;31495;42.740;22.908;2022-08-19T03:44:20;92990.13;;;16.64;65.15
45793;BME280;31495;42.740;22.908;2022-08-19T03:45:20;92934.56;;;16.37;65.31
45793;BME280;31495;42.740;22.908;2022-08-19T03:46:23;93004.81;;;16.76;65.21
45793;BME280;31495;42.740;22.908;2022-08-19T03:47:23;92994.81;;;16.67;65.08
45793;BME280;31495;42.740;22.908;2022-08-19T03:48:23;92977.22;;;16.52;65.03
45793;BME280;31495;42.740;22.908;2022-08-19T03:49:25;92980.63;;;16.53;65.06
45793;BME280;31495;42.740;22.908;2022-08-19T03:50:26;93005.78;;;16.64;65.05
45793;BME280;31495;42.740;22.908;2022-08-19T03:51:33;92996.88;;;16.60;65.19
45793;BME280;31495;42.740;22.908;2022-08-19T03:52:34;92999.50;;;16.65;65.00
45793;BME280;31495;42.740;22.908;2022-08-19T03:53:35;92999.81;;;16.74;64.75
45793;BME280;31495;42.740;22.908;2022-08-19T03:54:35;92990.97;;;16.75;64.27
45793;BME280;31495;42.740;22.908;2022-08-19T03:55:41;92988.28;;;16.65;64.37
45793;BME280;31495;42.740;22.908;2022-08-19T03:56:42;92993.78;;;16.68;64.68
45793;BME280;31495;42.740;22.908;2022-08-19T03:57:42;92961.50;;;16.47;64.66
45793;BME280;31495;42.740;22.908;2022-08-19T03:58:41;92980.13;;;16.56;65.03
45793;BME280;31495;42.740;22.908;2022-08-19T03:59:41;93005.78;;;16.64;64.77
45793;BME280;31495;42.740;22.908;2022-08-19T04:00:42;93006.91;;;16.79;64.61
45793;BME280;31495;42.740;22.908;2022-08-19T04:01:42;93008.50;;;16.80;64.73
45793;BME280;31495;42.740;22.908;2022-08-19T04:02:41;92962.03;;;16.49;64.57
45793;BME280;31495;42.740;22.908;2022-08-19T04:03:42;93010.00;;;16.70;64.81
45793;BME280;31495;42.740;22.908;2022-08-19T04:04:43;93017.84;;;16.70;65.05
45793;BME280;31495;42.740;22.908;2022-08-19T04:05:42;93015.47;;;16.69;65.09
45793;BME280;31495;42.740;22.908;2022-08-19T04:06:43;93014.69;;;16.68;65.09
45793;BME280;31495;42.740;22.908;2022-08-19T04:07:43;93020.44;;;16.70;65.11
45793;BME280;31495;42.740;22.908;2022-08-19T04:08:43;92974.28;;;16.44;64.90
45793;BME280;31495;42.740;22.908;2022-08-19T04:09:43;92984.50;;;16.50;64.99
45793;BME280;31495;42.740;22.908;2022-08-19T04:10:43;93024.94;;;16.75;64.91
45793;BME280;31495;42.740;22.908;2022-08-19T04:11:47;93021.03;;;16.78;65.05
45793;BME280;31495;42.740;22.908;2022-08-19T04:12:47;92978.50;;;16.50;64.92
45793;BME280;31495;42.740;22.908;2022-08-19T04:13:48;93008.19;;;16.71;65.01
45793;BME280;31495;42.740;22.908;2022-08-19T04:14:47;93000.03;;;16.67;64.75
45793;BME280;31495;42.740;22.908;2022-08-19T04:15:47;93027.41;;;16.92;64.61
45793;BME280;31495;42.740;22.908;2022-08-19T04:16:47;92966.28;;;16.56;64.47
45793;BME280;31495;42.740;22.908;2022-08-19T04:17:47;93026.34;;;16.88;64.70
45793;BME280;31495;42.740;22.908;2022-08-19T04:18:47;93011.41;;;16.83;64.65
45793;BME280;31495;42.740;22.908;2022-08-19T04:19:47;93007.66;;;16.74;64.97
45793;BME280;31495;42.740;22.908;2022-08-19T04:20:47;93013.72;;;16.80;64.99
45793;BME280;31495;42.740;22.908;2022-08-19T04:21:50;93031.63;;;16.93;64.87
45793;BME280;31495;42.740;22.908;2022-08-19T04:22:50;93017.41;;;16.84;65.21
45793;BME280;31495;42.740;22.908;2022-08-19T04:23:50;93033.44;;;16.93;65.16
45793;BME280;31495;42.740;22.908;2022-08-19T04:24:50;92999.28;;;16.72;64.94
45793;BME280;31495;42.740;22.908;2022-08-19T04:25:49;93007.47;;;16.81;65.41
45793;BME280;31495;42.740;22.908;2022-08-19T04:26:50;92992.28;;;16.72;65.13
45793;BME280;31495;42.740;22.908;2022-08-19T04:27:49;93002.50;;;16.79;64.89
45793;BME280;31495;42.740;22.908;2022-08-19T04:28:49;93018.03;;;16.91;64.91
45793;BME280;31495;42.740;22.908;2022-08-19T04:29:50;93031.19;;;17.06;64.99
45793;BME280;31495;42.740;22.908;2022-08-19T04:30:52;93017.53;;;16.94;64.95
45793;BME280;31495;42.740;22.908;2022-08-19T04:31:54;93012.53;;;16.93;64.78
45793;BME280;31495;42.740;22.908;2022-08-19T04:32:54;93030.19;;;17.13;64.70
45793;BME280;31495;42.740;22.908;2022-08-19T04:33:59;93025.72;;;17.13;64.25
45793;BME280;31495;42.740;22.908;2022-08-19T04:34:59;93014.22;;;17.09;64.56
45793;BME280;31495;42.740;22.908;2022-08-19T04:35:59;93032.31;;;17.21;64.60
45793;BME280;31495;42.740;22.908;2022-08-19T04:36:59;93012.41;;;17.15;64.49
45793;BME280;31495;42.740;22.908;2022-08-19T04:37:58;93028.69;;;17.27;64.26
45793;BME280;31495;42.740;22.908;2022-08-19T04:39:03;93030.81;;;17.30;64.18
45793;BME280;31495;42.740;22.908;2022-08-19T04:40:05;93025.81;;;17.29;64.41
45793;BME280;31495;42.740;22.908;2022-08-19T04:41:24;93026.34;;;17.31;64.16
45793;BME280;31495;42.740;22.908;2022-08-19T04:42:43;93031.84;;;17.29;64.37
45793;BME280;31495;42.740;22.908;2022-08-19T04:43:45;93004.81;;;17.13;64.24
45793;BME280;31495;42.740;22.908;2022-08-19T04:44:47;93007.44;;;17.18;64.26
45793;BME280;31495;42.740;22.908;2022-08-19T04:45:47;93000.91;;;17.16;63.82
45793;BME280;31495;42.740;22.908;2022-08-19T04:46:48;93025.34;;;17.37;64.10
45793;BME280;31495;42.740;22.908;2022-08-19T04:47:48;93017.22;;;17.33;63.91
45793;BME280;31495;42.740;22.908;2022-08-19T04:48:48;93029.53;;;17.38;63.92
45793;BME280;31495;42.740;22.908;2022-08-19T04:49:47;92999.59;;;17.18;64.04
45793;BME280;31495;42.740;22.908;2022-08-19T04:50:48;92998.06;;;17.22;63.72
45793;BME280;31495;42.740;22.908;2022-08-19T04:51:49;93020.66;;;17.39;64.28
45793;BME280;31495;42.740;22.908;2022-08-19T04:52:50;93030.84;;;17.40;64.87
45793;BME280;31495;42.740;22.908;2022-08-19T04:53:50;93009.38;;;17.33;64.91
45793;BME280;31495;42.740;22.908;2022-08-19T04:54:51;93036.88;;;17.46;64.69
45793;BME280;31495;42.740;22.908;2022-08-19T04:55:50;92989.97;;;17.24;64.58
45793;BME280;31495;42.740;22.908;2022-08-19T04:56:54;93025.13;;;17.49;64.53
45793;BME280;31495;42.740;22.908;2022-08-19T04:57:54;93010.47;;;17.48;64.42
45793;BME280;31495;42.740;22.908;2022-08-19T04:58:54;93023.31;;;17.54;64.32
45793;BME280;31495;42.740;22.908;2022-08-19T04:59:55;93024.91;;;17.60;64.28
45793;BME280;31495;42.740;22.908;2022-08-19T05:00:55;93013.44;;;17.61;64.35
45793;BME280;31495;42.740;22.908;2022-08-19T05:01:55;93005.81;;;17.55;64.18
45793;BME280;31495;42.740;22.908;2022-08-19T05:02:54;93032.28;;;17.74;64.31
45793;BME280;31495;42.740;22.908;2022-08-19T05:03:54;93017.63;;;17.68;64.38
45793;BME280;31495;42.740;22.908;2022-08-19T05:04:58;93024.69;;;17.72;64.55
45793;BME280;31495;42.740;22.908;2022-08-19T05:06:07;93023.41;;;17.70;64.38
45793;BME280;31495;42.740;22.908;2022-08-19T05:07:08;93021.53;;;17.65;64.38
45793;BME280;31495;42.740;22.908;2022-08-19T05:08:08;92999.25;;;17.57;64.76
45793;BME280;31495;42.740;22.908;2022-08-19T05:09:08;93021.56;;;17.75;64.60
45793;BME280;31495;42.740;22.908;2022-08-19T05:10:08;93010.06;;;17.71;64.41
45793;BME280;31495;42.740;22.908;2022-08-19T05:11:14;93025.03;;;17.86;64.94
45793;BME280;31495;42.740;22.908;2022-08-19T05:12:14;93010.06;;;17.76;64.76
45793;BME280;31495;42.740;22.908;2022-08-19T05:13:16;93025.31;;;17.90;64.41
45793;BME280;31495;42.740;22.908;2022-08-19T05:14:16;93027.94;;;17.95;64.98
45793;BME280;31495;42.740;22.908;2022-08-19T05:15:16;93034.25;;;17.94;64.50
45793;BME280;31495;42.740;22.908;2022-08-19T05:16:20;93032.94;;;17.96;64.66
45793;BME280;31495;42.740;22.908;2022-08-19T05:17:20;93033.72;;;17.97;64.22
45793;BME280;31495;42.740;22.908;2022-08-19T05:18:20;93029.03;;;18.04;64.46
45793;BME280;31495;42.740;22.908;2022-08-19T05:19:38;93018.03;;;18.02;64.59
45793;BME280;31495;42.740;22.908;2022-08-19T05:20:56;93033.25;;;18.15;64.57
45793;BME280;31495;42.740;22.908;2022-08-19T05:22:14;93018.06;;;18.12;64.55